Cincinnati Northern Kentucky International Airport
KCVG : now visible

Airfield :











YOU CAN JOIN US ON...

 
LOGIN :

Register | Disclaimer

   EN    FR    IT 

 









Legend :    VFR   Marginal VFR   IFR   Intensive IFR   Very Intensive IFR
Visi :
Ceiling :
>= 8 km
>= 3000ft
5 to 8 km
1000 to 3000 ft
1500m to 5 km
500 to 1000 ft
800 to 1500m
200 to 500 ft
< 800m
< 200 ft
Symbols :   Thunderstorms  Fog  Heavy snow  Heavy precipitations  Wind > 20 kt






- Airport Elevation : 896 ft
- IATA code : CVG


KCVG - Cincinnati Northern Kentucky International

CURRENT METAR :
  • 182352Z 34011KT 10SM FEW045 24/13 A3009 RMK AO2 SLP182 T02390128 10267 20239 55000

EXPIRED METARs :
  • 182252Z 34013KT 10SM FEW050 26/13 A3009 RMK AO2 SLP180 T02560128
  • 182152Z 34012KT 10SM FEW050 26/13 A3009 RMK AO2 SLP181 T02610128
  • 182052Z 36012KT 10SM FEW050 26/13 A3009 RMK AO2 SLP181 T02610133 55003
  • 181952Z 33008G17KT 10SM FEW055 27/13 A3009 RMK AO2 SLP180 T02670128
  • 181852Z 33009G19KT 10SM FEW050 26/13 A3010 RMK AO2 SLP182 T02560133

TAF KCVG
Valid from the 19 at 00:00 until the 20 at 06:00 UTC


182341Z 1900/2006 34010KT P6SM FEW050
FM190400 03006KT P6SM SKC
FM191500 06006KT P6SM FEW050
FM200100 02003KT P6SM SCT250
KZID FIR / North America



MET'MAP, your aeronautical weather chart ! - Copyright ORBIFLY December 2007 - Disclaimer

ORBIFLY MET'MAP TEAM :

Programming & Development : Alexandra Zaïnal
Original concept : Baudouin d'Aumeries
Technical & hardware support : Manuel Goepfert
Assistance : Marc-Olivier Méhu




SOURCES & CREDITS :

   NOAA       Earth
Advisory